Flight Track Log - Related Links

Times and Time Zones

All times are in EDT time to prevent confusion due to time zone crossing. See the N652AA flight status page for this flight to view local times or setup timezone preferences in your user account.

Time Position Orientation Groundspeed Altitude Reporting Facility
EDT Latitude Longitude Course Direction KTS MPH feet Rate Location/Type
Mon 04:07:32 PM 25.7398 -80.2507 336° Northwest  Level FlightAware Approximate
Mon 04:07:51 PM 25.7775 -80.2692 145° Southeast 168 193 1,100  Level Miami Center
Mon 04:13:01 PM 25.4836 -80.0447 166° South 304 350 12,200 2,189 Climbing Miami Center
Mon 04:14:01 PM 25.3839 -80.0167 163° South 342 394 14,600 2,300 Climbing Miami Center
Mon 04:15:01 PM 25.2803 -79.9819 161° South 369 425 16,800 2,050 Climbing Miami Center
Mon 04:16:01 PM 25.1767 -79.9425 162° South 387 445 18,700 1,950 Climbing Miami Center
Mon 04:17:01 PM 25.0647 -79.9031 161° South 407 468 20,700 1,700 Climbing Miami Center
Mon 04:18:01 PM 24.9733 -79.8686 162° South 422 486 22,100 1,450 Climbing Miami Center
Mon 04:19:01 PM 24.8489 -79.8244 162° South 427 491 23,600 1,650 Climbing Miami Center
Mon 04:20:01 PM 24.7286 -79.7803 163° South 441 507 25,400 1,850 Climbing Miami Center
Mon 04:21:01 PM 24.6083 -79.7386 162° South 447 514 27,300 2,100 Climbing Miami Center
Mon 04:22:01 PM 24.4922 -79.6972 163° South 447 514 29,600 1,600 Climbing Miami Center
Mon 04:23:01 PM 24.3781 -79.6581 161° South 435 501 30,500 1,000 Climbing Miami Center
Mon 04:24:01 PM 24.2639 -79.6144 162° South 435 501 31,600 1,300 Climbing Miami Center
Mon 04:25:01 PM 24.1456 -79.5733 160° South 435 501 33,100 1,400 Climbing Miami Center
Mon 04:26:01 PM 24.0356 -79.5300 162° South 435 501 34,400 1,300 Climbing Miami Center
Mon 04:33:32 PM 23.1566 -79.2127 164° South  Level FlightAware Approximate
Mon 04:34:32 PM 23.0380 -79.1767 164° South  Level FlightAware Approximate
Mon 04:35:32 PM 22.9194 -79.1407 164° South  Level FlightAware Approximate
Mon 04:36:32 PM 22.8007 -79.1049 164° South  Level FlightAware Approximate
Mon 04:37:32 PM 22.6821 -79.0690 164° South  Level FlightAware Approximate
Mon 04:38:32 PM 22.5634 -79.0333 164° South  Level FlightAware Approximate
Mon 04:39:32 PM 22.4447 -78.9976 164° South  Level FlightAware Approximate
Mon 04:40:32 PM 22.3261 -78.9620 164° South  Level FlightAware Approximate
Mon 04:41:32 PM 22.2074 -78.9264 165° South  Level FlightAware Approximate
Mon 04:42:32 PM 22.0887 -78.8909 137° Southeast  Level FlightAware Approximate
Mon 04:43:32 PM 21.9992 -78.7998 165° South  Level FlightAware Approximate
Mon 04:44:32 PM 21.8802 -78.7654 165° South  Level FlightAware Approximate
Mon 04:45:32 PM 21.7613 -78.7311 165° South  Level FlightAware Approximate
Mon 04:46:32 PM 21.6423 -78.6969 165° South  Level FlightAware Approximate
Mon 04:47:32 PM 21.5233 -78.6628 165° South  Level FlightAware Approximate
Mon 04:48:32 PM 21.4043 -78.6286 165° South  Level FlightAware Approximate
Mon 04:49:32 PM 21.2853 -78.5946 165° South  Level FlightAware Approximate
Mon 04:50:32 PM 21.1663 -78.5606 165° South  Level FlightAware Approximate
Mon 04:51:32 PM 21.0472 -78.5266 165° South  Level FlightAware Approximate
Mon 04:52:32 PM 20.9282 -78.4927 165° South  Level FlightAware Approximate
Mon 04:53:32 PM 20.8092 -78.4589 165° South  Level FlightAware Approximate
Mon 04:54:32 PM 20.6901 -78.4251 165° South  Level FlightAware Approximate
Mon 04:55:32 PM 20.5711 -78.3914 165° South  Level FlightAware Approximate
Mon 04:56:32 PM 20.4520 -78.3577 165° South  Level FlightAware Approximate
Mon 04:57:32 PM 20.3330 -78.3241 165° South  Level FlightAware Approximate
Mon 04:58:32 PM 20.2139 -78.2905 165° South  Level FlightAware Approximate
Mon 04:59:32 PM 20.0948 -78.2570 165° South  Level FlightAware Approximate
Mon 05:00:32 PM 19.9757 -78.2235 167° South  Level FlightAware Approximate
Mon 05:01:32 PM 19.8557 -78.1948 172° South  Level FlightAware Approximate
Mon 05:02:32 PM 19.7337 -78.1769 172° South  Level FlightAware Approximate
Mon 05:03:32 PM 19.6117 -78.1590 172° South  Level FlightAware Approximate
Mon 05:04:32 PM 19.4897 -78.1411 172° South  Level FlightAware Approximate
Mon 05:05:32 PM 19.3677 -78.1233 172° South  Level FlightAware Approximate
Mon 05:06:32 PM 19.2457 -78.1055 172° South  Level FlightAware Approximate
Mon 05:07:32 PM 19.1237 -78.0877 172° South  Level FlightAware Approximate
Mon 05:08:32 PM 19.0017 -78.0700 172° South  Level FlightAware Approximate
Mon 05:09:32 PM 18.8797 -78.0522 172° South  Level FlightAware Approximate
Mon 05:10:32 PM 18.7576 -78.0345 172° South  Level FlightAware Approximate
Mon 05:11:32 PM 18.6356 -78.0169 172° South  Level FlightAware Approximate
Mon 05:12:32 PM 18.5136 -77.9992 172° South  Level FlightAware Approximate
Mon 05:13:32 PM 18.3916 -77.9816 172° South  Level FlightAware Approximate
Mon 05:14:32 PM 18.2696 -77.9640 172° South  Level FlightAware Approximate
Mon 05:15:32 PM 18.1475 -77.9464 172° South  Level FlightAware Approximate
Mon 05:16:32 PM 18.0255 -77.9289 172° South  Level FlightAware Approximate
Mon 05:17:32 PM 17.9035 -77.9113 172° South  Level FlightAware Approximate
Mon 05:18:32 PM 17.7814 -77.8938 172° South  Level FlightAware Approximate
Mon 05:19:32 PM 17.6594 -77.8764 172° South  Level FlightAware Approximate
Mon 05:20:32 PM 17.5374 -77.8589 172° South  Level FlightAware Approximate
Mon 05:21:32 PM 17.4153 -77.8415 172° South  Level FlightAware Approximate
Mon 05:22:32 PM 17.2933 -77.8241 172° South  Level FlightAware Approximate
Mon 05:23:32 PM 17.1713 -77.8067 172° South  Level FlightAware Approximate
Mon 05:24:32 PM 17.0492 -77.7893 172° South  Level FlightAware Approximate
Mon 05:25:32 PM 16.9272 -77.7720 172° South  Level FlightAware Approximate
Mon 05:26:32 PM 16.8051 -77.7547 172° South  Level FlightAware Approximate
Mon 05:27:32 PM 16.6831 -77.7374 172° South  Level FlightAware Approximate
Mon 05:28:32 PM 16.5611 -77.7201 172° South  Level FlightAware Approximate
Mon 05:29:32 PM 16.4390 -77.7029 172° South  Level FlightAware Approximate
Mon 05:30:32 PM 16.3169 -77.6856 172° South  Level FlightAware Approximate
Mon 05:31:32 PM 16.1949 -77.6684 172° South  Level FlightAware Approximate
Mon 05:32:32 PM 16.0728 -77.6512 172° South  Level FlightAware Approximate
Mon 05:33:32 PM 15.9508 -77.6341 172° South  Level FlightAware Approximate
Mon 05:34:32 PM 15.8287 -77.6169 172° South  Level FlightAware Approximate
Mon 05:35:32 PM 15.7067 -77.5998 172° South  Level FlightAware Approximate
Mon 05:36:32 PM 15.5846 -77.5827 172° South  Level FlightAware Approximate
Mon 05:37:32 PM 15.4626 -77.5656 172° South  Level FlightAware Approximate
Mon 05:38:32 PM 15.3405 -77.5486 185° South  Level FlightAware Approximate
Mon 05:39:32 PM 15.2177 -77.5587 185° South  Level FlightAware Approximate
Mon 05:40:32 PM 15.0950 -77.5689 185° South  Level FlightAware Approximate
Mon 05:41:32 PM 14.9722 -77.5790 185° South  Level FlightAware Approximate
Mon 05:42:32 PM 14.8494 -77.5891 185° South  Level FlightAware Approximate
Mon 05:43:32 PM 14.7267 -77.5993 185° South  Level FlightAware Approximate
Mon 05:44:32 PM 14.6039 -77.6094 185° South  Level FlightAware Approximate
Mon 05:45:32 PM 14.4811 -77.6195 185° South  Level FlightAware Approximate
Mon 05:46:32 PM 14.3583 -77.6296 185° South  Level FlightAware Approximate
Mon 05:47:32 PM 14.2356 -77.6396 185° South  Level FlightAware Approximate
Mon 05:48:32 PM 14.1128 -77.6497 185° South  Level FlightAware Approximate
Mon 05:49:32 PM 13.9900 -77.6597 185° South  Level FlightAware Approximate
Mon 05:50:32 PM 13.8672 -77.6698 185° South  Level FlightAware Approximate
Mon 05:51:32 PM 13.7444 -77.6798 185° South  Level FlightAware Approximate
Mon 05:52:32 PM 13.6217 -77.6898 185° South  Level FlightAware Approximate
Mon 05:53:32 PM 13.4989 -77.6998 185° South  Level FlightAware Approximate
Mon 05:54:32 PM 13.3761 -77.7098 185° South  Level FlightAware Approximate
Mon 05:55:32 PM 13.2533 -77.7198 185° South  Level FlightAware Approximate
Mon 05:56:32 PM 13.1305 -77.7298 185° South  Level FlightAware Approximate
Mon 05:57:32 PM 13.0078 -77.7398 185° South  Level FlightAware Approximate
Mon 05:58:32 PM 12.8850 -77.7497 185° South  Level FlightAware Approximate
Mon 05:59:32 PM 12.7622 -77.7597 185° South  Level FlightAware Approximate
Mon 06:00:32 PM 12.6394 -77.7696 185° South  Level FlightAware Approximate
Mon 06:01:32 PM 12.5166 -77.7795 185° South  Level FlightAware Approximate
Mon 06:02:32 PM 12.3939 -77.7895 185° South  Level FlightAware Approximate
Mon 06:03:32 PM 12.2711 -77.7994 185° South  Level FlightAware Approximate
Mon 06:04:32 PM 12.1483 -77.8093 185° South  Level FlightAware Approximate
Mon 06:05:32 PM 12.0255 -77.8192 185° South  Level FlightAware Approximate
Mon 06:06:32 PM 11.9027 -77.8290 185° South  Level FlightAware Approximate
Mon 06:07:32 PM 11.7800 -77.8389 185° South  Level FlightAware Approximate
Mon 06:08:32 PM 11.6572 -77.8488 184° South  Level FlightAware Approximate
Mon 06:09:32 PM 11.5344 -77.8587 184° South  Level FlightAware Approximate
Mon 06:10:32 PM 11.4116 -77.8685 184° South  Level FlightAware Approximate
Mon 06:11:32 PM 11.2888 -77.8783 184° South  Level FlightAware Approximate
Mon 06:12:32 PM 11.1661 -77.8882 184° South  Level FlightAware Approximate
Mon 06:13:32 PM 11.0433 -77.8980 184° South  Level FlightAware Approximate
Mon 06:14:32 PM 10.9205 -77.9078 184° South  Level FlightAware Approximate
Mon 06:15:32 PM 10.7977 -77.9176 184° South  Level FlightAware Approximate
Mon 06:16:32 PM 10.6749 -77.9274 184° South  Level FlightAware Approximate
Mon 06:17:32 PM 10.5521 -77.9372 184° South  Level FlightAware Approximate
Mon 06:18:32 PM 10.4293 -77.9470 184° South  Level FlightAware Approximate
Mon 06:19:32 PM 10.3065 -77.9568 184° South  Level FlightAware Approximate
Mon 06:20:32 PM 10.1838 -77.9665 184° South  Level FlightAware Approximate
Mon 06:21:32 PM 10.0610 -77.9763 184° South  Level FlightAware Approximate
Mon 06:22:32 PM 9.9382 -77.9861 184° South  Level FlightAware Approximate
Mon 06:23:32 PM 9.8154 -77.9958 184° South  Level FlightAware Approximate
Mon 06:24:32 PM 9.6926 -78.0055 184° South  Level FlightAware Approximate
Mon 06:25:32 PM 9.5698 -78.0153 184° South  Level FlightAware Approximate
Mon 06:26:32 PM 9.4470 -78.0250 184° South  Level FlightAware Approximate
Mon 06:27:32 PM 9.3242 -78.0347 184° South  Level FlightAware Approximate
Mon 06:28:32 PM 9.2014 -78.0444 184° South  Level FlightAware Approximate
Mon 06:29:32 PM 9.0786 -78.0541 184° South  Level FlightAware Approximate
Mon 06:30:32 PM 8.9558 -78.0638 184° South  Level FlightAware Approximate
Mon 06:31:32 PM 8.8331 -78.0735 184° South  Level FlightAware Approximate
Mon 06:32:32 PM 8.7103 -78.0832 184° South  Level FlightAware Approximate
Mon 06:33:32 PM 8.5875 -78.0929 184° South  Level FlightAware Approximate
Mon 06:34:32 PM 8.4647 -78.1025 184° South  Level FlightAware Approximate
Mon 06:35:32 PM 8.3419 -78.1122 184° South  Level FlightAware Approximate
Mon 06:36:32 PM 8.2191 -78.1219 183° South  Level FlightAware Approximate
Mon 06:37:32 PM 8.0961 -78.1273 183° South  Level FlightAware Approximate
Mon 06:38:32 PM 7.9730 -78.1328 183° South  Level FlightAware Approximate
Mon 06:39:32 PM 7.8500 -78.1382 183° South  Level FlightAware Approximate
Mon 06:40:32 PM 7.7269 -78.1436 183° South  Level FlightAware Approximate
Mon 06:41:32 PM 7.6039 -78.1491 183° South  Level FlightAware Approximate
Mon 06:42:32 PM 7.4809 -78.1545 183° South  Level FlightAware Approximate
Mon 06:43:32 PM 7.3578 -78.1600 183° South  Level FlightAware Approximate
Mon 06:44:32 PM 7.2348 -78.1654 183° South  Level FlightAware Approximate
Mon 06:45:32 PM 7.1117 -78.1708 183° South  Level FlightAware Approximate
Mon 06:46:32 PM 6.9887 -78.1762 183° South  Level FlightAware Approximate
Mon 06:47:32 PM 6.8656 -78.1817 183° South  Level FlightAware Approximate
Mon 06:48:32 PM 6.7426 -78.1871 183° South  Level FlightAware Approximate
Mon 06:49:32 PM 6.6195 -78.1925 183° South  Level FlightAware Approximate
Mon 06:50:32 PM 6.4965 -78.1979 183° South  Level FlightAware Approximate
Mon 06:51:32 PM 6.3734 -78.2033 183° South  Level FlightAware Approximate
Mon 06:52:32 PM 6.2504 -78.2087 183° South  Level FlightAware Approximate
Mon 06:53:32 PM 6.1273 -78.2141 182° South  Level FlightAware Approximate
Mon 06:54:32 PM 6.0043 -78.2195 182° South  Level FlightAware Approximate
Mon 06:55:32 PM 5.8812 -78.2249 182° South  Level FlightAware Approximate
Mon 06:56:32 PM 5.7582 -78.2303 183° South  Level FlightAware Approximate
Mon 06:57:32 PM 5.6351 -78.2357 182° South  Level FlightAware Approximate
Mon 06:58:32 PM 5.5121 -78.2411 182° South  Level FlightAware Approximate
Mon 06:59:32 PM 5.3890 -78.2465 182° South  Level FlightAware Approximate
Mon 07:00:32 PM 5.2660 -78.2519 182° South  Level FlightAware Approximate
Mon 07:01:32 PM 5.1429 -78.2573 182° South  Level FlightAware Approximate
Mon 07:02:32 PM 5.0199 -78.2627 182° South  Level FlightAware Approximate
Mon 07:03:32 PM 4.8968 -78.2681 182° South  Level FlightAware Approximate
Mon 07:04:32 PM 4.7738 -78.2734 182° South  Level FlightAware Approximate
Mon 07:05:32 PM 4.6507 -78.2788 182° South  Level FlightAware Approximate
Mon 07:06:32 PM 4.5277 -78.2842 182° South  Level FlightAware Approximate
Mon 07:07:32 PM 4.4046 -78.2896 182° South  Level FlightAware Approximate
Mon 07:08:32 PM 4.2813 -78.2949 182° South  Level FlightAware Approximate
Mon 07:09:32 PM 4.1581 -78.3003 182° South  Level FlightAware Approximate
Mon 07:10:32 PM 4.0348 -78.3057 182° South  Level FlightAware Approximate
Mon 07:11:32 PM 3.9115 -78.3111 182° South  Level FlightAware Approximate
Mon 07:12:32 PM 3.7883 -78.3165 182° South  Level FlightAware Approximate
Mon 07:13:32 PM 3.6650 -78.3218 182° South  Level FlightAware Approximate
Mon 07:14:32 PM 3.5417 -78.3272 182° South  Level FlightAware Approximate
Mon 07:15:32 PM 3.4185 -78.3326 182° South  Level FlightAware Approximate
Mon 07:16:32 PM 3.2952 -78.3379 182° South  Level FlightAware Approximate
Mon 07:17:32 PM 3.1719 -78.3433 182° South  Level FlightAware Approximate
Mon 07:18:32 PM 3.0486 -78.3487 182° South  Level FlightAware Approximate
Mon 07:19:32 PM 2.9254 -78.3540 182° South  Level FlightAware Approximate
Mon 07:20:32 PM 2.8021 -78.3594 182° South  Level FlightAware Approximate
Mon 07:21:32 PM 2.6788 -78.3648 182° South  Level FlightAware Approximate
Mon 07:22:32 PM 2.5556 -78.3701 182° South  Level FlightAware Approximate
Mon 07:23:32 PM 2.4323 -78.3755 182° South  Level FlightAware Approximate
Mon 07:24:32 PM 2.3090 -78.3809 182° South  Level FlightAware Approximate
Mon 07:25:32 PM 2.1858 -78.3862 182° South  Level FlightAware Approximate
Mon 07:26:32 PM 2.0625 -78.3916 182° South  Level FlightAware Approximate
Mon 07:27:32 PM 1.9392 -78.3969 182° South  Level FlightAware Approximate
Mon 07:28:32 PM 1.8159 -78.4023 182° South  Level FlightAware Approximate
Mon 07:29:32 PM 1.6927 -78.4077 182° South  Level FlightAware Approximate
Mon 07:30:32 PM 1.5694 -78.4130 182° South  Level FlightAware Approximate
Mon 07:31:32 PM 1.4461 -78.4184 182° South  Level FlightAware Approximate
Mon 07:32:32 PM 1.3229 -78.4237 182° South  Level FlightAware Approximate
Mon 07:33:32 PM 1.1996 -78.4291 182° South  Level FlightAware Approximate
Mon 07:34:32 PM 1.0763 -78.4344 182° South  Level FlightAware Approximate
Mon 07:35:32 PM 0.9531 -78.4398 182° South  Level FlightAware Approximate
Mon 07:36:32 PM 0.8298 -78.4451 182° South  Level FlightAware Approximate
Mon 07:37:32 PM 0.7065 -78.4505 182° South  Level FlightAware Approximate
Mon 07:38:32 PM 0.5815 -78.4559 182° South  Level FlightAware Approximate
Mon 07:39:32 PM 0.4565 -78.4613 182° South  Level FlightAware Approximate
Mon 07:40:32 PM 0.3315 -78.4668 213° Southwest  Level FlightAware Approximate
Mon 07:41:32 PM 0.2346 -78.5301 171° South  Level FlightAware Approximate
Mon 07:42:32 PM 0.1112 -78.5098 172° South  Level FlightAware Approximate
Mon 07:43:32 PM -0.0094 -78.4935 166° South  Level FlightAware Approximate
Mon 07:44:32 PM -0.1167 -78.4667 221° Southwest  Level FlightAware Approximate
Mon 07:45:32 PM -0.2106 -78.5493 41° Northeast  Level Estimated
Mon 07:46:32 PM -0.1167 -78.4667 221° Southwest  Level FlightAware Approximate
Mon 07:47:32 PM -0.2106 -78.5493 41° Northeast  Level Estimated
Mon 07:48:32 PM -0.1167 -78.4667 221° Southwest  Level FlightAware Approximate
Mon 07:49:32 PM -0.2106 -78.5493 41° Northeast  Level Estimated
Mon 07:50:32 PM -0.1167 -78.4667 221° Southwest  Level FlightAware Approximate
Mon 07:51:32 PM -0.2106 -78.5493 41° Northeast  Level Estimated
Mon 07:52:32 PM -0.1167 -78.4667 41° Northeast  Level FlightAware Approximate

Login

Don't have an account? Register now (free) for customized features, flight alerts, and more!